Time;durP1;ratioP1;P1;durP2;ratioP2;P2;SDS_P1;SDS_P2;PMS_P1;PMS_P2;Temp;Humidity;BMP_temperature;BMP_pressure;BME280_temperature;BME280_humidity;BME280_pressure;Samples;Min_cycle;Max_cycle;Signal;HPM_P1;HPM_P2
2024/01/05 00:01:56;;;;;;;8.33;2.50;;;;;;;1.66;100.00;100382.25;5111050;28;20447;-65
2024/01/05 00:04:21;;;;;;;8.05;2.65;;;;;;;1.67;100.00;100376.25;5107241;28;20111;-65
2024/01/05 00:06:47;;;;;;;7.63;3.10;;;;;;;1.69;100.00;100388.56;5107533;28;20420;-65
2024/01/05 00:09:12;;;;;;;7.33;2.93;;;;;;;1.71;100.00;100393.88;5108053;28;20153;-65
2024/01/05 00:11:37;;;;;;;6.83;2.57;;;;;;;1.72;100.00;100390.50;5108225;28;20380;-65
2024/01/05 00:14:03;;;;;;;6.13;2.20;;;;;;;1.74;100.00;100391.47;5107180;28;20102;-65
2024/01/05 00:16:28;;;;;;;9.70;2.33;;;;;;;1.74;100.00;100396.69;5107054;28;20409;-65
2024/01/05 00:18:54;;;;;;;6.03;2.50;;;;;;;1.74;100.00;100394.09;5106707;28;20039;-64
2024/01/05 00:21:27;;;;;;;6.90;2.43;;;;;;;1.72;100.00;100407.03;5106731;28;20234;-64
2024/01/05 00:23:55;;;;;;;6.15;2.28;;;;;;;1.72;100.00;100396.59;5106977;28;20121;-65
2024/01/05 00:26:21;;;;;;;6.40;2.60;;;;;;;1.72;100.00;100398.31;5106681;28;20092;-64
2024/01/05 00:28:47;;;;;;;7.43;2.50;;;;;;;1.72;100.00;100393.09;5106633;28;20036;-64
2024/01/05 00:31:14;;;;;;;7.10;2.63;;;;;;;1.74;100.00;100394.09;5106977;28;20042;-65
2024/01/05 00:33:40;;;;;;;6.68;2.53;;;;;;;1.73;100.00;100401.00;5106681;28;20125;-64
2024/01/05 00:36:06;;;;;;;6.40;2.20;;;;;;;1.77;100.00;100404.75;5106624;28;20056;-65
2024/01/05 00:38:32;;;;;;;9.40;2.42;;;;;;;1.73;100.00;100407.91;5106709;28;20030;-65
2024/01/05 00:43:20;;;;;;;5.85;2.45;;;;;;;1.73;100.00;100394.88;5087396;28;20375;-65
2024/01/05 00:45:46;;;;;;;6.23;2.27;;;;;;;1.76;100.00;100400.31;5086819;28;20123;-65
2024/01/05 00:48:11;;;;;;;9.50;2.53;;;;;;;1.73;100.00;100395.78;5087319;28;20082;-66
2024/01/05 00:50:36;;;;;;;7.30;2.17;;;;;;;1.74;100.00;100401.91;5087053;28;20063;-65
2024/01/05 00:53:02;;;;;;;6.27;2.17;;;;;;;1.78;100.00;100395.22;5087335;28;20131;-65
2024/01/05 00:55:27;;;;;;;6.30;2.10;;;;;;;1.78;100.00;100390.91;5086710;28;20043;-65
2024/01/05 00:57:52;;;;;;;6.37;2.77;;;;;;;1.79;100.00;100392.72;5087010;28;20047;-65
2024/01/05 01:00:18;;;;;;;8.95;1.98;;;;;;;1.81;100.00;100396.34;5089042;28;20123;-65
2024/01/05 01:02:43;;;;;;;6.20;2.10;;;;;;;1.80;100.00;100388.41;5088241;28;20430;-65
2024/01/05 01:05:09;;;;;;;5.43;1.73;;;;;;;1.79;100.00;100392.72;5086756;28;20039;-65
2024/01/05 01:07:34;;;;;;;7.60;1.90;;;;;;;1.79;100.00;100390.09;5086781;28;20032;-65
2024/01/05 01:09:59;;;;;;;5.87;2.00;;;;;;;1.81;100.00;100385.91;5086781;28;20028;-65
2024/01/05 01:12:26;;;;;;;7.60;2.05;;;;;;;1.82;100.00;100384.22;5086757;28;20044;-66
2024/01/05 01:14:52;;;;;;;7.47;2.10;;;;;;;1.79;100.00;100390.09;5086593;28;20036;-65
2024/01/05 01:17:17;;;;;;;9.48;1.73;;;;;;;1.82;100.00;100377.31;5086562;28;20032;-66
2024/01/05 01:19:42;;;;;;;7.03;2.40;;;;;;;1.82;100.00;100377.31;5086451;28;20470;-65
2024/01/05 01:22:08;;;;;;;6.90;2.30;;;;;;;1.86;100.00;100371.53;5086514;28;20119;-65
2024/01/05 01:24:33;;;;;;;5.13;1.70;;;;;;;1.89;100.00;100370.81;5086389;28;20705;-65
2024/01/05 01:26:58;;;;;;;5.97;2.00;;;;;;;1.90;100.00;100367.41;5086313;28;20024;-65
2024/01/05 01:29:25;;;;;;;6.13;1.93;;;;;;;1.91;100.00;100369.22;5086517;28;20123;-65
2024/01/05 01:31:50;;;;;;;6.05;2.08;;;;;;;1.88;100.00;100380.31;5086486;28;20395;-66
2024/01/05 01:34:15;;;;;;;6.70;2.10;;;;;;;1.88;100.00;100377.72;5086668;28;20050;-65
2024/01/05 01:36:41;;;;;;;8.45;2.30;;;;;;;1.89;100.00;100369.13;5086187;28;20078;-65
2024/01/05 01:39:06;;;;;;;5.60;2.27;;;;;;;1.92;100.00;100366.75;5086124;28;20373;-64
2024/01/05 01:41:32;;;;;;;6.90;2.17;;;;;;;1.93;100.00;100355.50;5085973;28;20045;-65
2024/01/05 01:43:57;;;;;;;6.20;1.95;;;;;;;1.95;100.00;100343.50;5086247;28;20037;-65
2024/01/05 01:46:23;;;;;;;6.27;1.53;;;;;;;1.93;100.00;100345.09;5086135;28;20036;-65
2024/01/05 01:48:50;;;;;;;6.07;1.90;;;;;;;1.95;100.00;100346.09;5086145;28;20047;-65
2024/01/05 01:51:15;;;;;;;6.00;1.47;;;;;;;1.94;100.00;100352.09;5086279;28;20286;-65
2024/01/05 01:53:41;;;;;;;6.18;2.00;;;;;;;1.95;100.00;100348.72;5078296;28;20037;-64
2024/01/05 01:56:10;;;;;;;6.60;1.93;;;;;;;1.93;99.82;100352.00;5072112;28;20059;-64
2024/01/05 01:58:40;;;;;;;6.70;2.10;;;;;;;1.88;99.50;100359.50;5072620;28;20111;-65
2024/01/05 02:01:06;;;;;;;6.18;1.90;;;;;;;1.87;99.13;100368.13;5074363;28;20064;-65
2024/01/05 02:03:32;;;;;;;4.57;1.50;;;;;;;1.86;99.12;100368.00;5071031;28;20467;-65
2024/01/05 02:05:59;;;;;;;5.60;1.92;;;;;;;1.88;99.44;100369.00;5072228;28;20075;-65
2024/01/05 02:08:24;;;;;;;5.97;1.87;;;;;;;1.90;98.72;100364.81;5072500;28;20041;-65
2024/01/05 02:10:49;;;;;;;7.60;2.40;;;;;;;1.92;99.06;100364.13;5071695;28;20111;-65
2024/01/05 02:13:15;;;;;;;5.83;2.20;;;;;;;1.97;98.79;100369.66;5072415;28;20398;-65
2024/01/05 02:15:40;;;;;;;6.30;2.40;;;;;;;1.98;98.91;100371.44;5071857;28;20044;-64
2024/01/05 02:18:13;;;;;;;5.97;2.33;;;;;;;2.00;98.54;100362.94;5072295;28;20128;-65
2024/01/05 02:22:56;;;;;;;5.88;1.90;;;;;;;2.02;98.87;100350.91;5067214;28;20431;-65
2024/01/05 02:25:21;;;;;;;8.50;2.42;;;;;;;2.04;99.05;100353.63;5066569;28;20032;-65
2024/01/05 02:27:46;;;;;;;6.77;2.20;;;;;;;2.06;98.74;100350.34;5067114;28;20463;-65
2024/01/05 02:30:19;;;;;;;7.77;2.43;;;;;;;2.06;99.00;100346.84;5056055;28;20078;-63
2024/01/05 02:32:44;;;;;;;5.75;2.50;;;;;;;2.05;99.16;100348.53;5046954;28;20033;-64
2024/01/05 02:35:10;;;;;;;5.93;2.07;;;;;;;2.06;98.35;100347.75;5046535;28;20132;-62
2024/01/05 02:37:35;;;;;;;6.00;2.38;;;;;;;2.07;98.66;100335.63;5046856;28;20094;-65
2024/01/05 02:40:00;;;;;;;6.43;2.60;;;;;;;2.06;98.40;100333.81;5046633;28;20120;-65
2024/01/05 02:42:26;;;;;;;7.57;2.80;;;;;;;2.04;98.70;100331.09;5046958;28;20124;-66
2024/01/05 02:44:51;;;;;;;6.43;2.60;;;;;;;2.04;98.80;100322.38;5046492;28;20108;-62
2024/01/05 02:47:16;;;;;;;6.30;2.10;;;;;;;2.02;98.89;100317.06;5046815;28;20112;-62
2024/01/05 02:49:42;;;;;;;7.03;2.50;;;;;;;2.02;98.46;100318.78;5046506;28;20090;-62
2024/01/05 02:52:07;;;;;;;5.87;2.13;;;;;;;2.01;98.39;100325.69;5046644;28;20120;-65
2024/01/05 02:54:32;;;;;;;8.30;2.53;;;;;;;2.02;98.29;100324.00;5046173;28;20128;-62
2024/01/05 02:56:58;;;;;;;5.47;2.00;;;;;;;2.01;98.12;100325.69;5046721;28;20029;-62
2024/01/05 02:59:23;;;;;;;6.77;2.40;;;;;;;2.03;97.97;100329.28;5046342;28;20124;-62
2024/01/05 03:01:49;;;;;;;8.02;2.22;;;;;;;2.00;97.92;100318.66;5049680;28;20064;-65
2024/01/05 03:04:15;;;;;;;6.77;2.47;;;;;;;2.03;97.74;100323.16;5046537;28;20037;-65
2024/01/05 03:06:40;;;;;;;6.38;2.17;;;;;;;2.05;97.46;100321.59;5046005;28;20048;-62
2024/01/05 03:09:08;;;;;;;5.93;2.27;;;;;;;2.07;97.76;100325.22;5045902;28;20037;-62
2024/01/05 03:11:34;;;;;;;10.02;2.60;;;;;;;2.08;97.82;100311.34;5046209;28;20048;-65
2024/01/05 03:14:00;;;;;;;6.50;2.13;;;;;;;2.07;97.48;100320.00;5046447;28;20033;-62
2024/01/05 03:16:26;;;;;;;6.40;2.28;;;;;;;2.08;97.57;100312.25;5046783;28;20033;-66
2024/01/05 03:18:51;;;;;;;7.77;2.40;;;;;;;2.09;97.30;100318.38;5046669;28;20036;-65
2024/01/05 03:21:16;;;;;;;6.50;2.60;;;;;;;2.08;97.35;100311.34;5045929;28;20124;-64
2024/01/05 03:23:42;;;;;;;12.13;2.63;;;;;;;2.06;97.11;100303.47;5042710;28;20033;-64
2024/01/05 03:26:08;;;;;;;8.07;2.50;;;;;;;2.05;96.88;100301.66;5039950;28;20037;-65
2024/01/05 03:28:35;;;;;;;7.97;2.47;;;;;;;2.02;96.73;100295.34;5043050;28;20708;-64
2024/01/05 03:31:01;;;;;;;8.43;2.10;;;;;;;2.00;97.04;100291.72;5045361;28;20029;-64
2024/01/05 03:33:26;;;;;;;6.87;2.40;;;;;;;2.03;96.51;100287.63;5036317;28;20087;-65
2024/01/05 03:35:51;;;;;;;7.33;2.47;;;;;;;2.05;96.41;100291.22;5032165;28;20435;-64
2024/01/05 03:38:17;;;;;;;10.30;2.57;;;;;;;2.06;96.26;100293.03;5032070;28;20390;-64
2024/01/05 03:40:42;;;;;;;7.37;2.30;;;;;;;2.08;96.64;100295.72;5040252;28;20385;-64
2024/01/05 03:43:08;;;;;;;6.80;2.07;;;;;;;2.09;95.82;100292.34;5032284;28;20042;-63
2024/01/05 03:45:33;;;;;;;7.43;2.40;;;;;;;2.09;96.15;100294.94;5031843;28;20041;-63
2024/01/05 03:47:59;;;;;;;6.75;2.30;;;;;;;2.08;96.01;100286.22;5032426;28;20056;-64
2024/01/05 03:50:25;;;;;;;10.03;3.00;;;;;;;2.10;96.28;100292.44;5032074;28;20039;-64
2024/01/05 03:52:50;;;;;;;6.05;1.98;;;;;;;2.07;95.92;100289.63;5031887;28;20505;-65
2024/01/05 03:55:15;;;;;;;7.70;2.10;;;;;;;2.07;95.73;100287.00;5031368;28;20045;-64
2024/01/05 03:57:41;;;;;;;6.57;2.10;;;;;;;2.08;95.63;100287.91;5031728;28;20184;-64
2024/01/05 04:00:07;;;;;;;6.13;2.00;;;;;;;2.02;95.68;100280.59;5032245;28;20108;-64
2024/01/05 04:02:33;;;;;;;6.80;2.42;;;;;;;2.04;95.53;100273.78;5034763;28;20033;-64
2024/01/05 04:04:58;;;;;;;6.53;2.67;;;;;;;2.01;95.48;100276.22;5031708;28;20048;-64
2024/01/05 04:07:23;;;;;;;6.45;2.15;;;;;;;2.05;95.45;100274.69;5032042;28;20112;-63
2024/01/05 04:09:50;;;;;;;8.07;2.40;;;;;;;2.07;95.54;100268.78;5031442;28;20112;-64
2024/01/05 04:12:17;;;;;;;9.75;3.00;;;;;;;2.07;95.18;100267.91;5032009;28;20053;-64
2024/01/05 04:14:44;;;;;;;7.97;2.70;;;;;;;2.04;94.90;100268.59;5031754;28;20136;-63
2024/01/05 04:17:09;;;;;;;7.15;2.20;;;;;;;2.04;95.18;100262.47;5031686;28;20084;-63
2024/01/05 04:19:34;;;;;;;8.20;2.67;;;;;;;2.01;95.44;100265.78;5031546;28;20041;-64
2024/01/05 04:22:00;;;;;;;7.10;2.15;;;;;;;2.01;95.44;100252.78;5031704;28;20038;-64
2024/01/05 04:24:25;;;;;;;7.33;2.40;;;;;;;2.03;95.40;100261.56;5031670;28;20486;-65
2024/01/05 04:26:50;;;;;;;6.87;2.13;;;;;;;2.04;95.64;100259.88;5031351;28;20112;-64
2024/01/05 04:29:16;;;;;;;6.03;2.20;;;;;;;2.02;95.68;100253.69;5031598;28;20493;-64
2024/01/05 04:31:41;;;;;;;8.63;2.23;;;;;;;2.00;95.48;100263.06;5031618;28;20116;-64
2024/01/05 04:34:07;;;;;;;6.35;2.20;;;;;;;2.02;95.40;100261.50;5031239;28;20401;-64
2024/01/05 04:36:32;;;;;;;6.93;2.00;;;;;;;1.99;95.38;100269.97;5030971;28;20029;-64
2024/01/05 04:38:58;;;;;;;5.80;2.20;;;;;;;1.99;95.36;100272.59;5031121;28;20045;-64
2024/01/05 04:41:24;;;;;;;6.57;1.80;;;;;;;1.96;94.52;100255.88;5031266;28;20037;-64
2024/01/05 04:43:50;;;;;;;6.37;2.30;;;;;;;1.94;94.71;100244.44;5030760;28;20132;-64
2024/01/05 04:46:17;;;;;;;5.65;2.10;;;;;;;1.94;95.08;100244.44;5036924;28;20055;-64
2024/01/05 04:48:43;;;;;;;6.90;2.17;;;;;;;1.94;94.86;100245.34;5032406;28;20123;-64
2024/01/05 04:51:08;;;;;;;6.07;2.33;;;;;;;1.88;94.90;100238.81;5031034;28;20097;-64
2024/01/05 04:53:33;;;;;;;7.93;2.20;;;;;;;1.91;95.16;100242.53;5031157;28;20104;-63
2024/01/05 04:55:59;;;;;;;7.57;2.33;;;;;;;1.87;95.04;100231.81;5030751;28;20056;-64
2024/01/05 04:58:24;;;;;;;5.47;2.33;;;;;;;1.87;95.00;100224.91;5031178;28;20033;-64
2024/01/05 05:00:50;;;;;;;7.63;2.30;;;;;;;1.87;94.57;100213.59;5033958;28;20128;-64
2024/01/05 05:03:15;;;;;;;6.93;2.33;;;;;;;1.86;94.58;100210.09;5031021;28;20490;-64
2024/01/05 05:05:40;;;;;;;7.17;2.30;;;;;;;1.86;94.94;100204.88;5030321;28;20042;-64
2024/01/05 05:08:10;;;;;;;7.32;2.22;;;;;;;1.85;93.95;100195.25;5030995;28;20651;-64
2024/01/05 05:10:37;;;;;;;5.63;1.87;;;;;;;1.81;94.28;100201.06;5030622;28;20045;-64
2024/01/05 05:13:03;;;;;;;6.38;1.88;;;;;;;1.80;94.78;100194.03;5030990;28;20112;-63
2024/01/05 05:15:28;;;;;;;5.40;1.95;;;;;;;1.81;94.52;100198.47;5030217;28;20043;-64
2024/01/05 05:17:53;;;;;;;5.10;1.50;;;;;;;1.82;94.02;100194.16;5030860;28;20493;-64
2024/01/05 05:20:19;;;;;;;6.57;2.10;;;;;;;1.84;94.46;100189.94;5030154;28;20164;-65
2024/01/05 05:22:44;;;;;;;7.70;1.93;;;;;;;1.85;93.80;100196.94;5030308;28;20805;-63
2024/01/05 05:25:09;;;;;;;4.93;1.73;;;;;;;1.81;94.12;100189.75;5030258;28;20116;-63
2024/01/05 05:27:35;;;;;;;5.53;1.80;;;;;;;1.79;94.15;100183.53;5030589;28;20875;-62
2024/01/05 05:30:05;;;;;;;6.13;1.93;;;;;;;1.81;93.93;100188.03;5030364;28;20121;-62
2024/01/05 05:32:30;;;;;;;5.85;1.70;;;;;;;1.82;93.84;100186.34;5030484;28;20056;-62
2024/01/05 05:34:55;;;;;;;5.20;1.90;;;;;;;1.82;93.58;100191.56;5030040;28;20125;-63
2024/01/05 05:37:21;;;;;;;7.60;1.83;;;;;;;1.84;93.88;100185.63;5030696;28;20534;-62
2024/01/05 05:41:58;;;;;;;6.40;1.77;;;;;;;1.82;94.04;100182.06;5087591;28;20375;-64
2024/01/05 05:44:24;;;;;;;5.43;2.13;;;;;;;1.80;93.96;100183.63;5087281;28;20021;-64
2024/01/05 05:46:49;;;;;;;5.63;2.05;;;;;;;1.76;94.03;100184.25;5086950;28;20109;-64
2024/01/05 05:49:14;;;;;;;6.77;1.93;;;;;;;1.74;93.76;100188.44;5083992;28;20420;-64
2024/01/05 05:51:40;;;;;;;7.30;1.73;;;;;;;1.77;93.46;100193.84;5066902;28;20112;-64
2024/01/05 05:54:05;;;;;;;7.30;1.87;;;;;;;1.80;93.57;100196.66;5066820;28;20032;-65
2024/01/05 05:56:31;;;;;;;6.43;2.17;;;;;;;1.80;93.73;100206.16;5066492;28;20040;-65
2024/01/05 05:58:56;;;;;;;5.47;1.90;;;;;;;1.75;93.80;100208.47;5066652;28;20135;-65
2024/01/05 06:01:23;;;;;;;5.70;1.93;;;;;;;1.74;94.00;100209.25;5069993;28;20033;-64
2024/01/05 06:03:48;;;;;;;6.72;2.17;;;;;;;1.73;93.85;100212.66;5065958;28;20051;-65
2024/01/05 06:06:18;;;;;;;6.67;1.97;;;;;;;1.71;94.55;100209.97;5071243;28;20481;-64
2024/01/05 06:08:44;;;;;;;6.25;1.88;;;;;;;1.69;94.36;100215.84;5067375;28;20400;-64
2024/01/05 06:11:09;;;;;;;5.57;2.00;;;;;;;1.69;95.01;100221.06;5066319;28;20107;-65
2024/01/05 06:13:35;;;;;;;6.57;2.03;;;;;;;1.66;95.41;100223.47;5073509;28;20046;-65
2024/01/05 06:16:00;;;;;;;9.47;2.20;;;;;;;1.62;95.16;100226.66;5065808;28;20275;-64
2024/01/05 06:18:26;;;;;;;7.40;2.57;;;;;;;1.62;95.61;100231.88;5066194;28;20159;-65
2024/01/05 06:20:51;;;;;;;8.40;2.20;;;;;;;1.58;96.06;100227.25;5065777;28;20037;-64
2024/01/05 06:23:16;;;;;;;8.17;2.17;;;;;;;1.57;96.40;100225.47;5069117;28;20171;-65
2024/01/05 06:25:42;;;;;;;4.93;1.75;;;;;;;1.55;96.59;100227.03;5066117;28;20044;-65
2024/01/05 06:28:07;;;;;;;6.17;2.17;;;;;;;1.52;96.53;100232.03;5066110;28;20115;-65
2024/01/05 06:30:32;;;;;;;7.87;2.40;;;;;;;1.45;97.63;100235.91;5065914;28;20104;-64
2024/01/05 06:32:58;;;;;;;7.83;2.20;;;;;;;1.44;98.09;100241.91;5065992;28;20157;-65
2024/01/05 06:35:23;;;;;;;6.97;2.33;;;;;;;1.43;98.39;100244.44;5065580;28;20204;-65
2024/01/05 06:37:49;;;;;;;8.50;2.53;;;;;;;1.41;98.22;100236.50;5065531;28;20104;-65
2024/01/05 06:40:14;;;;;;;6.17;1.77;;;;;;;1.37;98.95;100236.19;5067948;28;20428;-65
2024/01/05 06:42:39;;;;;;;8.20;2.87;;;;;;;1.40;99.82;100236.41;5065727;28;20064;-64
2024/01/05 06:45:05;;;;;;;7.53;2.50;;;;;;;1.38;99.76;100243.22;5065291;28;20049;-67
2024/01/05 06:47:31;;;;;;;9.00;2.78;;;;;;;1.37;100.00;100249.22;5065491;28;20040;-67
2024/01/05 06:49:56;;;;;;;6.47;2.33;;;;;;;1.37;99.98;100242.31;5064937;28;20047;-66
2024/01/05 06:52:22;;;;;;;9.77;2.65;;;;;;;1.34;100.00;100239.47;5057634;28;20028;-67
2024/01/05 06:54:47;;;;;;;10.17;2.70;;;;;;;1.30;100.00;100240.97;5051522;28;20476;-67
2024/01/05 06:57:12;;;;;;;6.87;2.30;;;;;;;1.28;100.00;100245.16;5052195;28;20032;-67
2024/01/05 06:59:39;;;;;;;7.43;2.60;;;;;;;1.28;100.00;100242.56;5051822;28;20195;-67
2024/01/05 07:02:05;;;;;;;7.00;2.38;;;;;;;1.29;100.00;100241.78;5055615;28;20037;-67
2024/01/05 07:04:30;;;;;;;7.82;2.58;;;;;;;1.27;100.00;100245.06;5051694;28;20063;-67
2024/01/05 07:06:56;;;;;;;7.67;2.50;;;;;;;1.24;100.00;100230.13;5051892;28;20037;-67
2024/01/05 07:09:22;;;;;;;10.18;3.00;;;;;;;1.22;100.00;100226.56;5051761;28;20451;-67
2024/01/05 07:11:48;;;;;;;9.67;3.33;;;;;;;1.19;100.00;100231.53;5051655;28;20516;-67
2024/01/05 07:14:13;;;;;;;7.05;2.75;;;;;;;1.18;100.00;100228.84;5053257;28;20033;-67
2024/01/05 07:16:38;;;;;;;8.20;2.60;;;;;;;1.18;100.00;100227.16;5051421;28;20112;-67
2024/01/05 07:19:04;;;;;;;10.73;2.53;;;;;;;1.18;100.00;100221.94;5051504;28;20039;-67
2024/01/05 07:21:29;;;;;;;6.83;2.57;;;;;;;1.16;100.00;100220.00;5051512;28;20193;-67
2024/01/05 07:26:09;;;;;;;8.20;2.83;;;;;;;1.09;100.00;100207.38;5106866;27;20769;-67
2024/01/05 07:28:36;;;;;;;9.75;3.05;;;;;;;1.07;100.00;100198.56;5107018;28;20036;-67
2024/01/05 07:31:05;;;;;;;9.95;3.17;;;;;;;1.08;100.00;100203.91;5089208;28;20127;-67
2024/01/05 07:33:33;;;;;;;7.95;2.70;;;;;;;1.08;100.00;100192.59;5086945;28;20043;-67
2024/01/05 07:38:20;;;;;;;10.18;2.60;;;;;;;1.05;100.00;100193.25;5066887;28;20439;-67
2024/01/05 07:40:46;;;;;;;7.28;2.20;;;;;;;1.05;100.00;100198.47;5051066;28;20041;-68
2024/01/05 07:43:12;;;;;;;8.60;2.73;;;;;;;1.04;100.00;100196.66;5046976;28;20657;-67
2024/01/05 07:45:38;;;;;;;6.53;2.45;;;;;;;1.04;100.00;100199.25;5046401;28;20067;-67
2024/01/05 07:48:03;;;;;;;8.40;3.20;;;;;;;1.06;100.00;100201.97;5043355;28;20061;-67
2024/01/05 07:50:30;;;;;;;5.38;2.40;;;;;;;1.07;100.00;100202.09;5046472;28;20120;-66
2024/01/05 07:52:55;;;;;;;8.80;2.53;;;;;;;1.07;100.00;100207.28;5046584;28;20048;-68
2024/01/05 07:55:21;;;;;;;9.73;3.27;;;;;;;1.08;100.00;100201.28;5046468;28;20042;-67
2024/01/05 07:57:46;;;;;;;7.33;2.27;;;;;;;1.08;100.00;100203.00;5046319;28;20188;-68
2024/01/05 08:00:12;;;;;;;12.70;2.70;;;;;;;1.07;100.00;100194.28;5047572;28;20033;-67
2024/01/05 08:02:37;;;;;;;7.20;3.00;;;;;;;1.07;100.00;100196.88;5048894;28;20033;-68
2024/01/05 08:05:03;;;;;;;7.43;3.13;;;;;;;1.07;100.00;100212.50;5046222;28;20549;-67
2024/01/05 08:07:28;;;;;;;7.90;3.27;;;;;;;1.11;100.00;100211.00;5047078;28;20029;-67
2024/01/05 08:09:54;;;;;;;6.32;2.47;;;;;;;1.08;100.00;100211.69;5046081;28;20401;-67
2024/01/05 08:12:20;;;;;;;11.50;2.80;;;;;;;1.09;100.00;100202.16;5046527;28;20074;-67
2024/01/05 08:17:06;;;;;;;6.55;2.33;;;;;;;1.12;100.00;100213.72;5106104;27;20432;-68
2024/01/05 08:19:31;;;;;;;7.77;2.83;;;;;;;1.11;100.00;100211.00;5101452;28;20555;-68
2024/01/05 08:21:56;;;;;;;10.35;3.50;;;;;;;1.13;100.00;100207.72;5087176;28;20032;-68
2024/01/05 08:24:22;;;;;;;7.73;2.90;;;;;;;1.14;100.00;100201.69;5086983;28;20507;-67
2024/01/05 08:26:47;;;;;;;9.03;3.27;;;;;;;1.15;100.00;100200.91;5087036;28;20180;-68
2024/01/05 08:29:13;;;;;;;10.27;3.67;;;;;;;1.16;100.00;100210.50;5086999;28;20040;-68
2024/01/05 08:31:39;;;;;;;9.88;3.13;;;;;;;1.18;100.00;100213.22;5086986;28;20123;-68
2024/01/05 08:34:04;;;;;;;6.80;2.50;;;;;;;1.17;100.00;100212.31;5086970;28;20032;-68
2024/01/05 08:36:30;;;;;;;8.77;2.85;;;;;;;1.18;100.00;100200.22;5086418;28;20451;-68
2024/01/05 08:38:55;;;;;;;6.33;2.47;;;;;;;1.19;100.00;100200.31;5095241;28;20044;-68
2024/01/05 08:41:20;;;;;;;6.80;2.43;;;;;;;1.21;100.00;100198.72;5086941;28;20039;-68
2024/01/05 08:43:46;;;;;;;8.83;3.40;;;;;;;1.26;100.00;100189.53;5086667;28;20490;-69
2024/01/05 08:46:11;;;;;;;9.90;2.53;;;;;;;1.27;100.00;100185.25;5086535;28;20145;-69
2024/01/05 08:48:38;;;;;;;8.07;2.85;;;;;;;1.25;100.00;100177.31;5087009;28;20407;-68
2024/01/05 08:51:04;;;;;;;9.27;2.90;;;;;;;1.27;100.00;100180.94;5087290;28;20044;-70
2024/01/05 08:53:30;;;;;;;8.55;3.00;;;;;;;1.33;100.00;100188.28;5086814;28;20047;-69
2024/01/05 08:55:55;;;;;;;7.53;2.80;;;;;;;1.37;100.00;100184.16;5078046;28;20032;-68
2024/01/05 08:58:20;;;;;;;5.87;2.33;;;;;;;1.40;100.00;100192.16;5086581;28;20036;-69
2024/01/05 09:00:46;;;;;;;7.10;3.23;;;;;;;1.37;100.00;100179.88;5089783;28;20094;-67
2024/01/05 09:03:12;;;;;;;7.57;3.20;;;;;;;1.39;100.00;100178.25;5086565;28;20044;-68
2024/01/05 09:05:37;;;;;;;10.60;4.10;;;;;;;1.40;100.00;100181.75;5086041;28;20028;-68
2024/01/05 09:08:03;;;;;;;8.35;3.30;;;;;;;1.37;100.00;100184.16;5086608;28;20431;-69
2024/01/05 09:10:32;;;;;;;8.70;3.77;;;;;;;1.44;100.00;100181.16;5086168;28;20079;-69
2024/01/05 09:15:26;;;;;;;16.90;5.22;;;;;;;1.49;100.00;100185.88;5107330;27;20370;-67
2024/01/05 09:17:52;;;;;;;21.25;5.80;;;;;;;1.50;100.00;100184.19;5107537;28;20589;-67
2024/01/05 09:20:17;;;;;;;14.43;4.07;;;;;;;1.51;100.00;100181.69;5102527;28;20402;-67
2024/01/05 09:22:42;;;;;;;14.93;3.80;;;;;;;1.55;100.00;100180.19;5089072;28;20112;-67
2024/01/05 09:25:08;;;;;;;16.07;3.73;;;;;;;1.54;100.00;100173.19;5086991;28;20471;-69
2024/01/05 09:27:33;;;;;;;11.50;4.27;;;;;;;1.55;100.00;100169.78;5087240;28;20032;-68
2024/01/05 09:29:59;;;;;;;7.07;2.55;;;;;;;1.54;100.00;100173.19;5087175;28;20036;-67
2024/01/05 09:32:25;;;;;;;6.57;2.93;;;;;;;1.54;100.00;100167.97;5087110;28;20048;-69
2024/01/05 09:34:50;;;;;;;9.52;2.88;;;;;;;1.56;100.00;100171.59;5086613;28;20040;-67
2024/01/05 09:37:15;;;;;;;9.07;3.00;;;;;;;1.51;100.00;100165.19;5087064;28;20048;-69
2024/01/05 09:39:42;;;;;;;6.27;2.60;;;;;;;1.54;100.00;100171.47;5086560;28;20341;-69
2024/01/05 09:42:08;;;;;;;6.93;2.75;;;;;;;1.54;100.00;100170.56;5086727;28;20105;-69
2024/01/05 09:44:35;;;;;;;11.18;3.60;;;;;;;1.52;100.00;100172.19;5086554;28;20447;-68
2024/01/05 09:47:01;;;;;;;10.68;3.05;;;;;;;1.51;100.00;100170.38;5086411;28;20516;-68
2024/01/05 09:49:27;;;;;;;9.97;3.63;;;;;;;1.50;100.00;100163.38;5086732;28;20055;-68
2024/01/05 09:51:56;;;;;;;9.68;3.50;;;;;;;1.57;100.00;100170.81;5086502;28;20566;-68
2024/01/05 09:54:21;;;;;;;6.30;2.10;;;;;;;1.60;100.00;100171.00;5086363;28;20557;-68
2024/01/05 09:56:47;;;;;;;6.63;2.23;;;;;;;1.62;100.00;100166.81;5086381;28;20044;-68
2024/01/05 09:59:12;;;;;;;6.40;2.27;;;;;;;1.60;100.00;100163.19;5086242;28;20028;-68
2024/01/05 10:01:40;;;;;;;13.50;3.03;;;;;;;1.61;100.00;100167.59;5090052;28;20059;-67
2024/01/05 10:04:08;;;;;;;9.50;3.10;;;;;;;1.57;100.00;100166.50;5086321;28;20035;-69
2024/01/05 10:06:34;;;;;;;7.27;2.80;;;;;;;1.53;100.00;100161.88;5086143;28;20045;-68
2024/01/05 10:09:00;;;;;;;7.00;2.63;;;;;;;1.56;100.00;100155.97;5086084;28;20028;-69
2024/01/05 10:11:34;;;;;;;6.63;2.47;;;;;;;1.58;100.00;100144.00;5086342;28;20063;-70
2024/01/05 10:14:01;;;;;;;10.73;3.38;;;;;;;1.58;100.00;100147.47;5086023;28;20037;-69
2024/01/05 10:16:34;;;;;;;9.13;2.65;;;;;;;1.60;100.00;100144.97;5094294;28;20519;-68
2024/01/05 10:19:12;;;;;;;7.95;3.03;;;;;;;1.55;100.00;100143.75;5085584;28;20182;-69
2024/01/05 10:21:39;;;;;;;7.38;2.22;;;;;;;1.54;100.00;100142.84;5094274;28;20097;-68
2024/01/05 10:24:13;;;;;;;11.47;2.50;;;;;;;1.56;100.00;100141.28;5090045;28;20528;-70
2024/01/05 10:26:38;;;;;;;7.35;2.58;;;;;;;1.55;100.00;100142.06;5074640;28;20078;-69
2024/01/05 10:29:14;;;;;;;7.53;2.63;;;;;;;1.48;100.00;100141.56;5072000;28;20115;-68
2024/01/05 10:31:40;;;;;;;6.88;2.05;;;;;;;1.50;100.00;100145.16;5072521;28;20039;-70
2024/01/05 10:34:07;;;;;;;6.78;2.60;;;;;;;1.49;100.00;100138.16;5072022;28;20044;-71
2024/01/05 10:36:32;;;;;;;6.93;2.17;;;;;;;1.51;100.00;100137.47;5078872;28;20043;-69
2024/01/05 10:38:58;;;;;;;5.63;2.35;;;;;;;1.50;100.00;100120.03;5073101;28;20028;-69
2024/01/05 10:41:23;;;;;;;7.17;2.50;;;;;;;1.57;100.00;100117.06;5071843;28;20454;-70
2024/01/05 10:43:49;;;;;;;7.73;2.83;;;;;;;1.59;100.00;100114.53;5072232;28;20436;-68
2024/01/05 10:46:17;;;;;;;4.80;1.80;;;;;;;1.58;100.00;100118.84;5071644;28;20021;-69
2024/01/05 10:48:43;;;;;;;6.03;2.35;;;;;;;1.60;100.00;100111.13;5071666;28;20041;-68
2024/01/05 10:51:11;;;;;;;8.23;2.50;;;;;;;1.63;100.00;100107.03;5073093;28;20445;-68
2024/01/05 10:53:37;;;;;;;8.98;2.47;;;;;;;1.65;100.00;100095.03;5073968;28;20060;-68
2024/01/05 10:56:02;;;;;;;5.53;1.83;;;;;;;1.66;100.00;100096.84;5075801;28;20066;-69
2024/01/05 10:58:28;;;;;;;5.38;2.22;;;;;;;1.65;100.00;100083.72;5074492;28;20051;-69
2024/01/05 11:00:55;;;;;;;7.40;3.20;;;;;;;1.67;100.00;100088.22;5075152;28;20036;-68
2024/01/05 11:03:22;;;;;;;5.82;2.42;;;;;;;1.69;100.00;100084.00;5072142;28;20036;-68
2024/01/05 11:05:47;;;;;;;7.45;2.90;;;;;;;1.65;100.00;100074.19;5071277;28;20071;-69
2024/01/05 11:08:25;;;;;;;5.57;1.92;;;;;;;1.63;100.00;100078.41;5072736;28;20032;-68
2024/01/05 11:11:07;;;;;;;5.67;1.90;;;;;;;1.58;100.00;100074.59;5071218;28;20072;-69
2024/01/05 11:14:05;;;;;;;5.78;2.30;;;;;;;1.54;100.00;100064.78;5071364;28;20032;-68
2024/01/05 11:17:02;;;;;;;6.22;2.25;;;;;;;1.55;100.00;100061.41;5071066;28;20040;-69
2024/01/05 11:19:47;;;;;;;4.45;1.63;;;;;;;1.54;100.00;100064.78;5071402;28;20032;-68
2024/01/05 11:22:18;;;;;;;7.45;2.60;;;;;;;1.55;100.00;100063.09;5071483;28;20041;-69
2024/01/05 11:24:43;;;;;;;6.33;2.33;;;;;;;1.51;100.00;100054.19;5069312;28;20032;-69
2024/01/05 11:27:29;;;;;;;5.45;2.22;;;;;;;1.51;100.00;100053.28;5069669;28;20041;-69
2024/01/05 11:29:56;;;;;;;6.70;2.05;;;;;;;1.55;100.00;100050.06;5071112;28;20036;-70
2024/01/05 11:32:46;;;;;;;6.35;2.25;;;;;;;1.49;100.00;100047.97;5071476;28;20040;-68
2024/01/05 11:35:17;;;;;;;6.93;2.17;;;;;;;1.53;100.00;100046.50;5070843;28;20043;-69
2024/01/05 11:37:46;;;;;;;6.38;2.45;;;;;;;1.50;100.00;100041.06;5070120;28;20036;-70
2024/01/05 11:40:29;;;;;;;6.93;2.22;;;;;;;1.49;100.00;100031.47;5071047;28;20115;-69
2024/01/05 11:45:43;;;;;;;6.63;2.80;;;;;;;1.46;100.00;100010.47;5107482;27;20420;-71